sensor_id;sensor_type;location;lat;lon;timestamp;P1;durP1;ratioP1;P2;durP2;ratioP2
67889;SDS011;54685;52.082;5.426;2023-03-23T00:02:24;8.32;;;4.22;;
67889;SDS011;54685;52.082;5.426;2023-03-23T00:04:53;9.82;;;4.53;;
67889;SDS011;54685;52.082;5.426;2023-03-23T00:07:20;7.28;;;4.75;;
67889;SDS011;54685;52.082;5.426;2023-03-23T00:09:52;7.60;;;4.05;;
67889;SDS011;54685;52.082;5.426;2023-03-23T00:12:22;9.20;;;5.05;;
67889;SDS011;54685;52.082;5.426;2023-03-23T00:17:29;9.70;;;4.15;;
67889;SDS011;54685;52.082;5.426;2023-03-23T00:19:58;9.70;;;4.82;;
67889;SDS011;54685;52.082;5.426;2023-03-23T00:22:26;7.05;;;4.43;;
67889;SDS011;54685;52.082;5.426;2023-03-23T00:24:53;7.20;;;3.97;;
67889;SDS011;54685;52.082;5.426;2023-03-23T00:27:19;7.18;;;3.78;;
67889;SDS011;54685;52.082;5.426;2023-03-23T00:29:47;5.90;;;3.08;;
67889;SDS011;54685;52.082;5.426;2023-03-23T00:32:18;5.85;;;3.35;;
67889;SDS011;54685;52.082;5.426;2023-03-23T00:34:54;6.50;;;3.78;;
67889;SDS011;54685;52.082;5.426;2023-03-23T00:37:21;6.13;;;3.70;;
67889;SDS011;54685;52.082;5.426;2023-03-23T00:39:47;9.38;;;3.53;;
67889;SDS011;54685;52.082;5.426;2023-03-23T00:42:14;6.43;;;3.70;;
67889;SDS011;54685;52.082;5.426;2023-03-23T00:44:42;8.40;;;3.80;;
67889;SDS011;54685;52.082;5.426;2023-03-23T00:47:08;5.85;;;3.35;;
67889;SDS011;54685;52.082;5.426;2023-03-23T00:49:37;6.57;;;3.28;;
67889;SDS011;54685;52.082;5.426;2023-03-23T00:52:04;5.57;;;3.72;;
67889;SDS011;54685;52.082;5.426;2023-03-23T00:54:31;4.75;;;2.95;;
67889;SDS011;54685;52.082;5.426;2023-03-23T00:56:58;5.30;;;3.05;;
67889;SDS011;54685;52.082;5.426;2023-03-23T00:59:25;8.10;;;3.42;;
67889;SDS011;54685;52.082;5.426;2023-03-23T01:01:50;5.60;;;2.90;;
67889;SDS011;54685;52.082;5.426;2023-03-23T01:04:16;4.85;;;2.90;;
67889;SDS011;54685;52.082;5.426;2023-03-23T01:06:43;6.40;;;3.00;;
67889;SDS011;54685;52.082;5.426;2023-03-23T01:09:11;5.28;;;3.38;;
67889;SDS011;54685;52.082;5.426;2023-03-23T01:11:45;7.20;;;3.00;;
67889;SDS011;54685;52.082;5.426;2023-03-23T01:14:12;6.45;;;3.00;;
67889;SDS011;54685;52.082;5.426;2023-03-23T01:16:40;4.05;;;2.80;;
67889;SDS011;54685;52.082;5.426;2023-03-23T01:19:06;3.38;;;2.50;;
67889;SDS011;54685;52.082;5.426;2023-03-23T01:21:32;5.38;;;2.70;;
67889;SDS011;54685;52.082;5.426;2023-03-23T01:23:58;5.57;;;2.75;;
67889;SDS011;54685;52.082;5.426;2023-03-23T01:26:25;7.68;;;2.92;;
67889;SDS011;54685;52.082;5.426;2023-03-23T01:28:53;5.50;;;2.72;;
67889;SDS011;54685;52.082;5.426;2023-03-23T01:31:20;7.25;;;2.83;;
67889;SDS011;54685;52.082;5.426;2023-03-23T01:33:48;9.40;;;2.58;;
67889;SDS011;54685;52.082;5.426;2023-03-23T01:36:17;4.45;;;2.45;;
67889;SDS011;54685;52.082;5.426;2023-03-23T01:38:56;5.75;;;2.75;;
67889;SDS011;54685;52.082;5.426;2023-03-23T01:41:23;4.75;;;2.50;;
67889;SDS011;54685;52.082;5.426;2023-03-23T01:43:57;11.32;;;2.95;;
67889;SDS011;54685;52.082;5.426;2023-03-23T01:46:27;3.72;;;2.42;;
67889;SDS011;54685;52.082;5.426;2023-03-23T01:48:56;5.63;;;2.80;;
67889;SDS011;54685;52.082;5.426;2023-03-23T01:51:24;4.57;;;2.83;;
67889;SDS011;54685;52.082;5.426;2023-03-23T01:53:56;5.63;;;2.70;;
67889;SDS011;54685;52.082;5.426;2023-03-23T01:56:26;5.10;;;3.28;;
67889;SDS011;54685;52.082;5.426;2023-03-23T01:58:59;7.20;;;3.20;;
67889;SDS011;54685;52.082;5.426;2023-03-23T02:01:25;7.70;;;2.90;;
67889;SDS011;54685;52.082;5.426;2023-03-23T02:03:52;6.10;;;2.72;;
67889;SDS011;54685;52.082;5.426;2023-03-23T02:06:20;5.93;;;3.00;;
67889;SDS011;54685;52.082;5.426;2023-03-23T02:09:12;3.08;;;2.50;;
67889;SDS011;54685;52.082;5.426;2023-03-23T02:11:39;5.18;;;2.63;;
67889;SDS011;54685;52.082;5.426;2023-03-23T02:14:05;4.57;;;3.00;;
67889;SDS011;54685;52.082;5.426;2023-03-23T02:21:58;4.97;;;3.45;;
67889;SDS011;54685;52.082;5.426;2023-03-23T02:27:40;3.55;;;3.22;;
67889;SDS011;54685;52.082;5.426;2023-03-23T02:30:31;3.95;;;2.78;;
67889;SDS011;54685;52.082;5.426;2023-03-23T02:36:13;4.35;;;3.00;;
67889;SDS011;54685;52.082;5.426;2023-03-23T02:41:21;5.30;;;3.40;;
67889;SDS011;54685;52.082;5.426;2023-03-23T02:43:50;6.15;;;3.38;;
67889;SDS011;54685;52.082;5.426;2023-03-23T02:46:17;3.58;;;3.00;;
67889;SDS011;54685;52.082;5.426;2023-03-23T02:48:46;5.00;;;3.80;;
67889;SDS011;54685;52.082;5.426;2023-03-23T02:51:15;9.98;;;3.50;;
67889;SDS011;54685;52.082;5.426;2023-03-23T02:53:44;4.22;;;3.53;;
67889;SDS011;54685;52.082;5.426;2023-03-23T02:56:12;4.43;;;3.05;;
67889;SDS011;54685;52.082;5.426;2023-03-23T02:58:40;3.83;;;3.10;;
67889;SDS011;54685;52.082;5.426;2023-03-23T03:01:13;7.03;;;3.58;;
67889;SDS011;54685;52.082;5.426;2023-03-23T03:03:54;4.82;;;3.42;;
67889;SDS011;54685;52.082;5.426;2023-03-23T03:06:25;3.78;;;3.17;;
67889;SDS011;54685;52.082;5.426;2023-03-23T03:09:00;8.13;;;3.45;;
67889;SDS011;54685;52.082;5.426;2023-03-23T03:11:28;6.15;;;3.40;;
67889;SDS011;54685;52.082;5.426;2023-03-23T03:16:35;6.95;;;3.50;;
67889;SDS011;54685;52.082;5.426;2023-03-23T03:21:36;4.57;;;2.85;;
67889;SDS011;54685;52.082;5.426;2023-03-23T03:24:05;5.55;;;2.65;;
67889;SDS011;54685;52.082;5.426;2023-03-23T03:26:36;4.50;;;3.00;;
67889;SDS011;54685;52.082;5.426;2023-03-23T03:29:30;6.63;;;2.80;;
67889;SDS011;54685;52.082;5.426;2023-03-23T03:31:59;7.95;;;2.67;;
67889;SDS011;54685;52.082;5.426;2023-03-23T03:34:30;4.97;;;2.75;;
67889;SDS011;54685;52.082;5.426;2023-03-23T03:36:57;7.22;;;2.38;;
67889;SDS011;54685;52.082;5.426;2023-03-23T03:39:25;5.00;;;2.45;;
67889;SDS011;54685;52.082;5.426;2023-03-23T03:41:52;7.18;;;2.63;;
67889;SDS011;54685;52.082;5.426;2023-03-23T03:44:18;10.60;;;2.30;;
67889;SDS011;54685;52.082;5.426;2023-03-23T03:46:44;5.50;;;2.50;;
67889;SDS011;54685;52.082;5.426;2023-03-23T03:49:10;4.72;;;2.42;;
67889;SDS011;54685;52.082;5.426;2023-03-23T03:51:39;9.13;;;2.47;;
67889;SDS011;54685;52.082;5.426;2023-03-23T03:54:08;3.38;;;1.95;;
67889;SDS011;54685;52.082;5.426;2023-03-23T03:56:33;2.75;;;2.00;;
67889;SDS011;54685;52.082;5.426;2023-03-23T03:59:37;6.45;;;1.90;;
67889;SDS011;54685;52.082;5.426;2023-03-23T04:02:23;4.18;;;1.88;;
67889;SDS011;54685;52.082;5.426;2023-03-23T04:04:51;5.43;;;2.25;;
67889;SDS011;54685;52.082;5.426;2023-03-23T04:07:18;4.20;;;2.50;;
67889;SDS011;54685;52.082;5.426;2023-03-23T04:09:44;2.70;;;1.90;;
67889;SDS011;54685;52.082;5.426;2023-03-23T04:12:16;4.70;;;2.00;;
67889;SDS011;54685;52.082;5.426;2023-03-23T04:14:54;4.68;;;1.90;;
67889;SDS011;54685;52.082;5.426;2023-03-23T04:17:22;3.55;;;1.85;;
67889;SDS011;54685;52.082;5.426;2023-03-23T04:19:52;7.78;;;2.20;;
67889;SDS011;54685;52.082;5.426;2023-03-23T04:22:23;5.18;;;1.75;;
67889;SDS011;54685;52.082;5.426;2023-03-23T04:24:59;6.45;;;2.03;;
67889;SDS011;54685;52.082;5.426;2023-03-23T04:27:29;5.97;;;2.22;;
67889;SDS011;54685;52.082;5.426;2023-03-23T04:29:57;6.82;;;2.03;;
67889;SDS011;54685;52.082;5.426;2023-03-23T04:32:32;5.25;;;2.05;;
67889;SDS011;54685;52.082;5.426;2023-03-23T04:34:59;7.03;;;1.63;;
67889;SDS011;54685;52.082;5.426;2023-03-23T04:37:30;6.00;;;1.80;;
67889;SDS011;54685;52.082;5.426;2023-03-23T04:40:00;5.55;;;1.88;;
67889;SDS011;54685;52.082;5.426;2023-03-23T04:42:30;4.43;;;1.65;;
67889;SDS011;54685;52.082;5.426;2023-03-23T04:45:18;6.47;;;1.73;;
67889;SDS011;54685;52.082;5.426;2023-03-23T04:47:48;4.50;;;1.60;;
67889;SDS011;54685;52.082;5.426;2023-03-23T04:50:28;5.65;;;1.65;;
67889;SDS011;54685;52.082;5.426;2023-03-23T04:53:02;9.27;;;2.03;;
67889;SDS011;54685;52.082;5.426;2023-03-23T04:55:32;9.02;;;1.80;;
67889;SDS011;54685;52.082;5.426;2023-03-23T04:58:03;14.95;;;2.22;;
67889;SDS011;54685;52.082;5.426;2023-03-23T05:00:54;9.80;;;1.95;;
67889;SDS011;54685;52.082;5.426;2023-03-23T05:03:22;7.03;;;1.70;;
67889;SDS011;54685;52.082;5.426;2023-03-23T05:05:50;8.48;;;2.22;;
67889;SDS011;54685;52.082;5.426;2023-03-23T05:08:19;7.80;;;1.70;;
67889;SDS011;54685;52.082;5.426;2023-03-23T05:10:49;7.88;;;2.10;;
67889;SDS011;54685;52.082;5.426;2023-03-23T05:13:22;8.95;;;1.95;;
67889;SDS011;54685;52.082;5.426;2023-03-23T05:15:51;7.75;;;2.17;;
67889;SDS011;54685;52.082;5.426;2023-03-23T05:18:17;6.80;;;1.67;;
67889;SDS011;54685;52.082;5.426;2023-03-23T05:20:43;5.45;;;1.65;;
67889;SDS011;54685;52.082;5.426;2023-03-23T05:23:15;12.32;;;2.47;;
67889;SDS011;54685;52.082;5.426;2023-03-23T05:25:41;10.85;;;1.83;;
67889;SDS011;54685;52.082;5.426;2023-03-23T05:28:15;8.02;;;1.88;;
67889;SDS011;54685;52.082;5.426;2023-03-23T05:31:03;6.75;;;1.60;;
67889;SDS011;54685;52.082;5.426;2023-03-23T05:33:31;8.63;;;1.90;;
67889;SDS011;54685;52.082;5.426;2023-03-23T05:36:09;10.80;;;2.45;;
67889;SDS011;54685;52.082;5.426;2023-03-23T05:38:57;13.52;;;2.30;;
67889;SDS011;54685;52.082;5.426;2023-03-23T05:41:27;8.52;;;1.90;;
67889;SDS011;54685;52.082;5.426;2023-03-23T05:43:52;6.05;;;1.70;;
67889;SDS011;54685;52.082;5.426;2023-03-23T05:46:23;7.40;;;1.95;;
67889;SDS011;54685;52.082;5.426;2023-03-23T05:48:50;10.38;;;2.10;;
67889;SDS011;54685;52.082;5.426;2023-03-23T05:51:20;12.77;;;1.67;;
67889;SDS011;54685;52.082;5.426;2023-03-23T05:53:47;8.60;;;2.38;;
67889;SDS011;54685;52.082;5.426;2023-03-23T05:56:15;10.27;;;2.10;;
67889;SDS011;54685;52.082;5.426;2023-03-23T05:59:06;8.10;;;1.95;;
67889;SDS011;54685;52.082;5.426;2023-03-23T06:01:37;11.70;;;1.85;;
67889;SDS011;54685;52.082;5.426;2023-03-23T06:04:03;9.30;;;1.98;;
67889;SDS011;54685;52.082;5.426;2023-03-23T06:06:39;10.48;;;1.83;;
67889;SDS011;54685;52.082;5.426;2023-03-23T06:09:09;10.45;;;2.35;;
67889;SDS011;54685;52.082;5.426;2023-03-23T06:12:01;10.05;;;2.40;;
67889;SDS011;54685;52.082;5.426;2023-03-23T06:14:35;15.90;;;2.83;;
67889;SDS011;54685;52.082;5.426;2023-03-23T06:17:02;14.98;;;2.53;;
67889;SDS011;54685;52.082;5.426;2023-03-23T06:19:28;13.02;;;2.92;;
67889;SDS011;54685;52.082;5.426;2023-03-23T06:22:04;16.67;;;3.17;;
67889;SDS011;54685;52.082;5.426;2023-03-23T06:24:50;14.70;;;2.53;;
67889;SDS011;54685;52.082;5.426;2023-03-23T06:27:22;10.07;;;2.33;;
67889;SDS011;54685;52.082;5.426;2023-03-23T06:29:49;12.77;;;2.22;;
67889;SDS011;54685;52.082;5.426;2023-03-23T06:32:15;7.95;;;2.30;;
67889;SDS011;54685;52.082;5.426;2023-03-23T06:34:42;12.82;;;2.42;;
67889;SDS011;54685;52.082;5.426;2023-03-23T06:37:32;9.30;;;2.45;;
67889;SDS011;54685;52.082;5.426;2023-03-23T06:40:09;11.85;;;2.13;;
67889;SDS011;54685;52.082;5.426;2023-03-23T06:42:40;10.02;;;2.35;;
67889;SDS011;54685;52.082;5.426;2023-03-23T06:45:24;9.10;;;2.13;;
67889;SDS011;54685;52.082;5.426;2023-03-23T06:48:02;10.02;;;1.90;;
67889;SDS011;54685;52.082;5.426;2023-03-23T06:50:29;7.68;;;2.25;;
67889;SDS011;54685;52.082;5.426;2023-03-23T06:52:55;14.73;;;2.65;;
67889;SDS011;54685;52.082;5.426;2023-03-23T06:55:21;6.13;;;2.13;;
67889;SDS011;54685;52.082;5.426;2023-03-23T06:57:47;12.02;;;2.78;;
67889;SDS011;54685;52.082;5.426;2023-03-23T07:00:13;6.88;;;2.17;;
67889;SDS011;54685;52.082;5.426;2023-03-23T07:02:41;13.10;;;2.55;;
67889;SDS011;54685;52.082;5.426;2023-03-23T07:05:08;8.80;;;2.08;;
67889;SDS011;54685;52.082;5.426;2023-03-23T07:07:36;10.07;;;2.08;;
67889;SDS011;54685;52.082;5.426;2023-03-23T07:10:13;11.90;;;2.35;;
67889;SDS011;54685;52.082;5.426;2023-03-23T07:12:40;8.82;;;2.42;;
67889;SDS011;54685;52.082;5.426;2023-03-23T07:15:08;13.05;;;3.38;;
67889;SDS011;54685;52.082;5.426;2023-03-23T07:17:37;7.95;;;2.10;;
67889;SDS011;54685;52.082;5.426;2023-03-23T07:20:12;10.05;;;2.00;;
67889;SDS011;54685;52.082;5.426;2023-03-23T07:22:38;9.15;;;2.08;;
67889;SDS011;54685;52.082;5.426;2023-03-23T07:25:13;7.75;;;1.60;;
67889;SDS011;54685;52.082;5.426;2023-03-23T07:27:46;9.48;;;1.98;;
67889;SDS011;54685;52.082;5.426;2023-03-23T07:30:13;5.80;;;1.52;;
67889;SDS011;54685;52.082;5.426;2023-03-23T07:32:40;12.60;;;2.00;;
67889;SDS011;54685;52.082;5.426;2023-03-23T07:35:07;13.73;;;2.88;;
67889;SDS011;54685;52.082;5.426;2023-03-23T07:37:57;12.95;;;2.20;;
67889;SDS011;54685;52.082;5.426;2023-03-23T07:40:22;6.63;;;1.40;;
67889;SDS011;54685;52.082;5.426;2023-03-23T07:42:52;9.32;;;2.08;;
67889;SDS011;54685;52.082;5.426;2023-03-23T07:45:38;7.68;;;1.73;;
67889;SDS011;54685;52.082;5.426;2023-03-23T07:48:05;9.32;;;2.20;;
67889;SDS011;54685;52.082;5.426;2023-03-23T07:50:31;9.13;;;2.38;;
67889;SDS011;54685;52.082;5.426;2023-03-23T07:53:01;8.65;;;2.25;;
67889;SDS011;54685;52.082;5.426;2023-03-23T07:55:29;12.50;;;2.63;;
67889;SDS011;54685;52.082;5.426;2023-03-23T07:58:11;8.82;;;2.42;;
67889;SDS011;54685;52.082;5.426;2023-03-23T08:00:43;8.43;;;2.20;;
67889;SDS011;54685;52.082;5.426;2023-03-23T08:03:10;8.52;;;2.15;;
67889;SDS011;54685;52.082;5.426;2023-03-23T08:05:46;11.23;;;2.50;;
67889;SDS011;54685;52.082;5.426;2023-03-23T08:08:14;9.32;;;2.58;;
67889;SDS011;54685;52.082;5.426;2023-03-23T08:11:00;7.70;;;2.30;;
67889;SDS011;54685;52.082;5.426;2023-03-23T08:13:45;11.88;;;2.47;;
67889;SDS011;54685;52.082;5.426;2023-03-23T08:16:28;8.27;;;2.30;;
67889;SDS011;54685;52.082;5.426;2023-03-23T08:19:13;13.45;;;2.25;;
67889;SDS011;54685;52.082;5.426;2023-03-23T08:21:56;11.20;;;2.30;;
67889;SDS011;54685;52.082;5.426;2023-03-23T08:24:50;12.57;;;2.35;;
67889;SDS011;54685;52.082;5.426;2023-03-23T08:27:35;9.07;;;2.10;;
67889;SDS011;54685;52.082;5.426;2023-03-23T08:30:14;8.55;;;2.55;;
67889;SDS011;54685;52.082;5.426;2023-03-23T08:33:00;9.05;;;2.05;;
67889;SDS011;54685;52.082;5.426;2023-03-23T08:35:41;8.25;;;2.33;;
67889;SDS011;54685;52.082;5.426;2023-03-23T08:38:31;5.63;;;2.22;;
67889;SDS011;54685;52.082;5.426;2023-03-23T08:41:15;8.15;;;2.22;;
67889;SDS011;54685;52.082;5.426;2023-03-23T08:44:00;7.57;;;2.22;;
67889;SDS011;54685;52.082;5.426;2023-03-23T08:46:43;5.60;;;2.00;;
67889;SDS011;54685;52.082;5.426;2023-03-23T08:49:20;6.22;;;2.30;;
67889;SDS011;54685;52.082;5.426;2023-03-23T08:52:04;9.38;;;2.10;;
67889;SDS011;54685;52.082;5.426;2023-03-23T08:54:54;10.65;;;2.00;;
67889;SDS011;54685;52.082;5.426;2023-03-23T08:57:46;8.10;;;2.37;;
67889;SDS011;54685;52.082;5.426;2023-03-23T09:00:23;7.47;;;1.92;;
67889;SDS011;54685;52.082;5.426;2023-03-23T09:03:02;8.85;;;2.20;;
67889;SDS011;54685;52.082;5.426;2023-03-23T09:05:38;15.43;;;2.55;;
67889;SDS011;54685;52.082;5.426;2023-03-23T09:08:25;8.35;;;2.40;;
67889;SDS011;54685;52.082;5.426;2023-03-23T09:10:54;8.50;;;2.05;;
67889;SDS011;54685;52.082;5.426;2023-03-23T09:13:23;12.07;;;2.33;;
67889;SDS011;54685;52.082;5.426;2023-03-23T09:15:49;12.73;;;2.13;;
67889;SDS011;54685;52.082;5.426;2023-03-23T09:18:16;7.22;;;1.80;;
67889;SDS011;54685;52.082;5.426;2023-03-23T09:20:43;9.68;;;2.47;;
67889;SDS011;54685;52.082;5.426;2023-03-23T09:23:09;9.57;;;2.30;;
67889;SDS011;54685;52.082;5.426;2023-03-23T09:25:35;10.80;;;2.38;;
67889;SDS011;54685;52.082;5.426;2023-03-23T09:28:01;8.80;;;2.47;;
67889;SDS011;54685;52.082;5.426;2023-03-23T09:30:27;11.38;;;2.47;;
67889;SDS011;54685;52.082;5.426;2023-03-23T09:32:56;11.00;;;2.42;;
67889;SDS011;54685;52.082;5.426;2023-03-23T09:35:23;11.38;;;2.20;;
67889;SDS011;54685;52.082;5.426;2023-03-23T09:37:50;8.20;;;2.20;;
67889;SDS011;54685;52.082;5.426;2023-03-23T09:40:18;8.23;;;2.33;;
67889;SDS011;54685;52.082;5.426;2023-03-23T09:51:11;6.25;;;1.70;;
67889;SDS011;54685;52.082;5.426;2023-03-23T09:53:53;8.20;;;2.08;;
67889;SDS011;54685;52.082;5.426;2023-03-23T09:56:21;7.68;;;2.22;;
67889;SDS011;54685;52.082;5.426;2023-03-23T09:58:53;6.15;;;2.00;;
67889;SDS011;54685;52.082;5.426;2023-03-23T10:01:25;11.80;;;2.25;;
67889;SDS011;54685;52.082;5.426;2023-03-23T10:03:52;11.00;;;2.83;;
67889;SDS011;54685;52.082;5.426;2023-03-23T10:06:27;13.82;;;2.85;;
67889;SDS011;54685;52.082;5.426;2023-03-23T10:08:54;14.13;;;2.30;;
67889;SDS011;54685;52.082;5.426;2023-03-23T10:11:26;14.05;;;2.50;;
67889;SDS011;54685;52.082;5.426;2023-03-23T10:14:17;8.50;;;1.92;;
67889;SDS011;54685;52.082;5.426;2023-03-23T10:16:56;11.30;;;2.10;;
67889;SDS011;54685;52.082;5.426;2023-03-23T10:19:46;8.80;;;1.98;;
67889;SDS011;54685;52.082;5.426;2023-03-23T10:22:22;12.50;;;2.35;;
67889;SDS011;54685;52.082;5.426;2023-03-23T10:27:43;8.85;;;2.58;;
67889;SDS011;54685;52.082;5.426;2023-03-23T10:30:20;10.98;;;2.65;;
67889;SDS011;54685;52.082;5.426;2023-03-23T10:32:54;15.77;;;2.88;;
67889;SDS011;54685;52.082;5.426;2023-03-23T10:35:27;13.02;;;2.20;;
67889;SDS011;54685;52.082;5.426;2023-03-23T10:37:59;11.07;;;2.67;;
67889;SDS011;54685;52.082;5.426;2023-03-23T10:40:29;10.02;;;2.13;;
67889;SDS011;54685;52.082;5.426;2023-03-23T10:42:57;13.50;;;2.80;;
67889;SDS011;54685;52.082;5.426;2023-03-23T10:45:24;13.18;;;2.67;;
67889;SDS011;54685;52.082;5.426;2023-03-23T10:48:12;13.32;;;3.22;;
67889;SDS011;54685;52.082;5.426;2023-03-23T10:50:43;10.35;;;2.78;;
67889;SDS011;54685;52.082;5.426;2023-03-23T10:53:19;12.00;;;2.80;;
67889;SDS011;54685;52.082;5.426;2023-03-23T10:55:53;10.90;;;2.37;;
67889;SDS011;54685;52.082;5.426;2023-03-23T10:58:30;12.40;;;2.65;;
67889;SDS011;54685;52.082;5.426;2023-03-23T11:00:59;13.10;;;2.38;;
67889;SDS011;54685;52.082;5.426;2023-03-23T11:03:38;12.52;;;2.58;;
67889;SDS011;54685;52.082;5.426;2023-03-23T11:06:07;10.80;;;2.20;;
67889;SDS011;54685;52.082;5.426;2023-03-23T11:08:36;11.75;;;2.63;;
67889;SDS011;54685;52.082;5.426;2023-03-23T11:11:18;12.20;;;2.50;;
67889;SDS011;54685;52.082;5.426;2023-03-23T11:14:13;11.25;;;2.60;;
67889;SDS011;54685;52.082;5.426;2023-03-23T11:16:43;12.07;;;2.50;;
67889;SDS011;54685;52.082;5.426;2023-03-23T11:19:28;10.88;;;2.80;;
67889;SDS011;54685;52.082;5.426;2023-03-23T11:21:59;12.35;;;2.45;;
67889;SDS011;54685;52.082;5.426;2023-03-23T11:24:30;10.57;;;2.38;;
67889;SDS011;54685;52.082;5.426;2023-03-23T11:29:32;10.95;;;2.85;;
67889;SDS011;54685;52.082;5.426;2023-03-23T11:34:25;9.18;;;2.50;;
67889;SDS011;54685;52.082;5.426;2023-03-23T11:37:05;7.95;;;2.08;;
67889;SDS011;54685;52.082;5.426;2023-03-23T11:42:24;9.30;;;2.22;;
67889;SDS011;54685;52.082;5.426;2023-03-23T11:47:55;11.80;;;2.58;;
67889;SDS011;54685;52.082;5.426;2023-03-23T11:50:26;12.50;;;2.83;;
67889;SDS011;54685;52.082;5.426;2023-03-23T11:55:55;11.93;;;2.67;;
67889;SDS011;54685;52.082;5.426;2023-03-23T11:58:28;10.10;;;2.47;;
67889;SDS011;54685;52.082;5.426;2023-03-23T12:03:49;14.20;;;3.00;;
67889;SDS011;54685;52.082;5.426;2023-03-23T12:09:41;13.57;;;2.63;;
67889;SDS011;54685;52.082;5.426;2023-03-23T12:17:42;12.93;;;2.97;;
67889;SDS011;54685;52.082;5.426;2023-03-23T12:23:14;8.50;;;2.47;;
67889;SDS011;54685;52.082;5.426;2023-03-23T12:28:49;10.55;;;2.33;;
67889;SDS011;54685;52.082;5.426;2023-03-23T12:31:44;10.27;;;2.47;;
67889;SDS011;54685;52.082;5.426;2023-03-23T12:48:17;6.47;;;1.27;;
67889;SDS011;54685;52.082;5.426;2023-03-23T12:53:24;9.50;;;1.70;;
67889;SDS011;54685;52.082;5.426;2023-03-23T12:56:17;10.07;;;2.10;;
67889;SDS011;54685;52.082;5.426;2023-03-23T12:58:58;7.63;;;1.80;;
67889;SDS011;54685;52.082;5.426;2023-03-23T13:01:46;8.32;;;1.83;;
67889;SDS011;54685;52.082;5.426;2023-03-23T13:06:48;7.35;;;1.73;;
67889;SDS011;54685;52.082;5.426;2023-03-23T13:11:41;7.45;;;2.00;;
67889;SDS011;54685;52.082;5.426;2023-03-23T13:16:52;9.35;;;2.03;;
67889;SDS011;54685;52.082;5.426;2023-03-23T13:22:16;7.80;;;2.10;;
67889;SDS011;54685;52.082;5.426;2023-03-23T13:24:50;9.63;;;2.13;;
67889;SDS011;54685;52.082;5.426;2023-03-23T13:27:28;9.70;;;2.03;;
67889;SDS011;54685;52.082;5.426;2023-03-23T13:29:57;6.85;;;1.70;;
67889;SDS011;54685;52.082;5.426;2023-03-23T13:32:30;10.15;;;1.92;;
67889;SDS011;54685;52.082;5.426;2023-03-23T13:35:04;7.50;;;1.70;;
67889;SDS011;54685;52.082;5.426;2023-03-23T13:37:40;9.95;;;2.10;;
67889;SDS011;54685;52.082;5.426;2023-03-23T13:42:53;7.22;;;1.67;;
67889;SDS011;54685;52.082;5.426;2023-03-23T13:48:17;11.57;;;2.10;;
67889;SDS011;54685;52.082;5.426;2023-03-23T13:53:23;9.80;;;2.63;;
67889;SDS011;54685;52.082;5.426;2023-03-23T13:58:46;9.55;;;1.48;;
67889;SDS011;54685;52.082;5.426;2023-03-23T14:01:31;7.10;;;1.95;;
67889;SDS011;54685;52.082;5.426;2023-03-23T14:04:00;7.88;;;1.90;;
67889;SDS011;54685;52.082;5.426;2023-03-23T14:06:33;8.85;;;2.15;;
67889;SDS011;54685;52.082;5.426;2023-03-23T14:09:13;14.77;;;2.85;;
67889;SDS011;54685;52.082;5.426;2023-03-23T14:11:45;8.25;;;2.00;;
67889;SDS011;54685;52.082;5.426;2023-03-23T14:14:25;8.50;;;2.53;;
67889;SDS011;54685;52.082;5.426;2023-03-23T14:16:53;5.07;;;1.65;;
67889;SDS011;54685;52.082;5.426;2023-03-23T14:19:32;7.03;;;2.08;;
67889;SDS011;54685;52.082;5.426;2023-03-23T14:21:58;5.95;;;1.75;;
67889;SDS011;54685;52.082;5.426;2023-03-23T14:24:27;8.70;;;2.30;;
67889;SDS011;54685;52.082;5.426;2023-03-23T14:29:40;5.85;;;2.00;;
67889;SDS011;54685;52.082;5.426;2023-03-23T14:32:08;7.00;;;2.08;;
67889;SDS011;54685;52.082;5.426;2023-03-23T14:34:39;8.25;;;1.80;;
67889;SDS011;54685;52.082;5.426;2023-03-23T14:37:05;10.85;;;2.67;;
67889;SDS011;54685;52.082;5.426;2023-03-23T14:39:37;4.68;;;1.77;;
67889;SDS011;54685;52.082;5.426;2023-03-23T14:42:04;10.32;;;2.22;;
67889;SDS011;54685;52.082;5.426;2023-03-23T14:44:48;8.52;;;1.85;;
67889;SDS011;54685;52.082;5.426;2023-03-23T14:49:46;8.00;;;1.85;;
67889;SDS011;54685;52.082;5.426;2023-03-23T14:52:15;8.13;;;1.77;;
67889;SDS011;54685;52.082;5.426;2023-03-23T14:54:42;9.07;;;1.95;;
67889;SDS011;54685;52.082;5.426;2023-03-23T14:59:52;11.48;;;2.40;;
67889;SDS011;54685;52.082;5.426;2023-03-23T15:02:26;5.47;;;1.98;;
67889;SDS011;54685;52.082;5.426;2023-03-23T15:04:57;13.18;;;2.80;;
67889;SDS011;54685;52.082;5.426;2023-03-23T15:07:29;11.82;;;2.05;;
67889;SDS011;54685;52.082;5.426;2023-03-23T15:09:58;9.00;;;2.03;;
67889;SDS011;54685;52.082;5.426;2023-03-23T15:12:25;10.25;;;1.80;;
67889;SDS011;54685;52.082;5.426;2023-03-23T15:14:57;8.20;;;1.90;;
67889;SDS011;54685;52.082;5.426;2023-03-23T15:17:27;5.40;;;1.50;;
67889;SDS011;54685;52.082;5.426;2023-03-23T15:19:55;8.25;;;1.95;;
67889;SDS011;54685;52.082;5.426;2023-03-23T15:22:24;9.52;;;2.00;;
67889;SDS011;54685;52.082;5.426;2023-03-23T15:24:52;14.60;;;2.20;;
67889;SDS011;54685;52.082;5.426;2023-03-23T15:27:30;6.07;;;1.90;;
67889;SDS011;54685;52.082;5.426;2023-03-23T15:30:15;10.27;;;2.20;;
67889;SDS011;54685;52.082;5.426;2023-03-23T15:32:48;9.20;;;2.08;;
67889;SDS011;54685;52.082;5.426;2023-03-23T15:35:19;9.60;;;2.47;;
67889;SDS011;54685;52.082;5.426;2023-03-23T15:38:33;9.68;;;2.13;;
67889;SDS011;54685;52.082;5.426;2023-03-23T15:41:00;11.20;;;2.28;;
67889;SDS011;54685;52.082;5.426;2023-03-23T15:43:35;8.50;;;2.20;;
67889;SDS011;54685;52.082;5.426;2023-03-23T15:51:16;9.50;;;2.25;;
67889;SDS011;54685;52.082;5.426;2023-03-23T15:53:43;10.88;;;2.42;;
67889;SDS011;54685;52.082;5.426;2023-03-23T15:56:10;10.95;;;2.13;;
67889;SDS011;54685;52.082;5.426;2023-03-23T15:58:37;10.80;;;2.08;;
67889;SDS011;54685;52.082;5.426;2023-03-23T16:01:11;7.38;;;2.20;;
67889;SDS011;54685;52.082;5.426;2023-03-23T16:03:56;9.95;;;2.50;;
67889;SDS011;54685;52.082;5.426;2023-03-23T16:06:27;11.45;;;2.83;;
67889;SDS011;54685;52.082;5.426;2023-03-23T16:08:56;11.68;;;3.78;;
67889;SDS011;54685;52.082;5.426;2023-03-23T16:11:24;12.80;;;3.85;;
67889;SDS011;54685;52.082;5.426;2023-03-23T16:13:53;9.18;;;2.80;;
67889;SDS011;54685;52.082;5.426;2023-03-23T16:16:21;16.42;;;5.68;;
67889;SDS011;54685;52.082;5.426;2023-03-23T16:18:48;11.05;;;4.15;;
67889;SDS011;54685;52.082;5.426;2023-03-23T16:21:15;12.15;;;3.13;;
67889;SDS011;54685;52.082;5.426;2023-03-23T16:23:42;10.02;;;2.83;;
67889;SDS011;54685;52.082;5.426;2023-03-23T16:26:12;11.38;;;2.83;;
67889;SDS011;54685;52.082;5.426;2023-03-23T16:28:40;10.50;;;2.50;;
67889;SDS011;54685;52.082;5.426;2023-03-23T16:31:07;10.60;;;3.17;;
67889;SDS011;54685;52.082;5.426;2023-03-23T16:33:34;11.55;;;3.00;;
67889;SDS011;54685;52.082;5.426;2023-03-23T16:36:01;10.13;;;2.58;;
67889;SDS011;54685;52.082;5.426;2023-03-23T16:38:29;11.30;;;3.33;;
67889;SDS011;54685;52.082;5.426;2023-03-23T16:40:56;11.93;;;3.15;;
67889;SDS011;54685;52.082;5.426;2023-03-23T16:43:23;9.95;;;3.15;;
67889;SDS011;54685;52.082;5.426;2023-03-23T16:45:49;10.57;;;2.67;;
67889;SDS011;54685;52.082;5.426;2023-03-23T16:48:21;8.23;;;2.53;;
67889;SDS011;54685;52.082;5.426;2023-03-23T16:50:49;11.77;;;2.65;;
67889;SDS011;54685;52.082;5.426;2023-03-23T16:53:17;14.10;;;2.80;;
67889;SDS011;54685;52.082;5.426;2023-03-23T16:55:44;11.05;;;2.67;;
67889;SDS011;54685;52.082;5.426;2023-03-23T16:58:14;10.85;;;2.45;;
67889;SDS011;54685;52.082;5.426;2023-03-23T17:00:44;9.82;;;2.92;;
67889;SDS011;54685;52.082;5.426;2023-03-23T17:03:14;11.93;;;3.17;;
67889;SDS011;54685;52.082;5.426;2023-03-23T17:05:42;13.27;;;3.03;;
67889;SDS011;54685;52.082;5.426;2023-03-23T17:08:10;13.20;;;3.13;;
67889;SDS011;54685;52.082;5.426;2023-03-23T17:10:38;10.05;;;2.92;;